Time;durP1;ratioP1;P1;durP2;ratioP2;P2;SDS_P1;SDS_P2;PMS_P1;PMS_P2;Temp;Humidity;BMP_temperature;BMP_pressure;BME280_temperature;BME280_humidity;BME280_pressure;Samples;Min_cycle;Max_cycle;Signal;HPM_P1;HPM_P2
2023/12/07 00:01:52;;;;;;;14.43;9.20;;;1.80;99.90;;;;;;4936698;28;20238;-70
2023/12/07 00:04:19;;;;;;;12.53;9.17;;;2.00;99.90;;;;;;4926519;28;20201;-69
2023/12/07 00:06:46;;;;;;;15.30;9.37;;;1.90;99.90;;;;;;4943753;28;20262;-69
2023/12/07 00:09:13;;;;;;;14.83;9.33;;;;;;;;;;4912877;28;20230;-69
2023/12/07 00:11:42;;;;;;;16.83;9.93;;;;;;;;;;4950249;28;20200;-69
2023/12/07 00:14:09;;;;;;;14.00;9.73;;;1.90;99.90;;;;;;4943770;28;20200;-69
2023/12/07 00:16:36;;;;;;;13.63;8.90;;;1.80;99.90;;;;;;4938990;28;20255;-69
2023/12/07 00:19:02;;;;;;;12.70;9.17;;;1.90;99.90;;;;;;4941608;28;20208;-69
2023/12/07 00:21:29;;;;;;;14.10;9.23;;;1.90;99.90;;;;;;4939179;28;20228;-69
2023/12/07 00:23:56;;;;;;;13.67;8.97;;;2.00;99.90;;;;;;4909541;28;20216;-69
2023/12/07 00:26:23;;;;;;;13.43;9.20;;;2.20;99.90;;;;;;4948780;28;20205;-69
2023/12/07 00:28:51;;;;;;;13.93;8.87;;;1.80;99.90;;;;;;4945395;28;20203;-69
2023/12/07 00:31:20;;;;;;;12.93;8.90;;;2.10;99.90;;;;;;4933598;28;20262;-69
2023/12/07 00:33:47;;;;;;;13.43;9.07;;;1.80;99.90;;;;;;4940960;28;20224;-69
2023/12/07 00:36:13;;;;;;;14.83;9.43;;;2.00;99.90;;;;;;4935357;28;20245;-69
2023/12/07 00:38:40;;;;;;;13.47;9.47;;;1.90;99.90;;;;;;4913847;28;20950;-69
2023/12/07 00:41:07;;;;;;;14.63;9.73;;;1.90;99.90;;;;;;4937847;28;20235;-69
2023/12/07 00:43:34;;;;;;;14.43;9.47;;;1.90;99.90;;;;;;4946951;28;20291;-69
2023/12/07 00:46:03;;;;;;;12.97;8.90;;;1.90;99.90;;;;;;4935107;28;20568;-69
2023/12/07 00:48:30;;;;;;;13.63;9.43;;;1.80;99.90;;;;;;4943262;28;20208;-70
2023/12/07 00:50:57;;;;;;;14.20;9.70;;;2.10;99.90;;;;;;4946845;28;20200;-69
2023/12/07 00:53:23;;;;;;;15.10;9.53;;;2.60;99.90;;;;;;4899431;28;20222;-70
2023/12/07 00:55:50;;;;;;;15.40;10.10;;;1.80;99.90;;;;;;4946762;28;20298;-70
2023/12/07 00:58:17;;;;;;;16.63;10.50;;;1.90;99.90;;;;;;4942955;28;20208;-69
2023/12/07 01:00:44;;;;;;;13.67;8.90;;;1.90;99.90;;;;;;4925519;28;20293;-69
2023/12/07 01:03:12;;;;;;;14.20;9.83;;;2.70;99.90;;;;;;4925902;28;20266;-69
2023/12/07 01:05:39;;;;;;;15.53;9.73;;;2.50;99.90;;;;;;4944094;28;20780;-69
2023/12/07 01:08:06;;;;;;;17.33;9.77;;;;;;;;;;4914213;28;20334;-69
2023/12/07 01:10:33;;;;;;;14.50;9.80;;;2.00;99.90;;;;;;4938187;28;20219;-69
2023/12/07 01:13:01;;;;;;;15.20;10.07;;;1.90;99.90;;;;;;4943404;28;20200;-69
2023/12/07 01:15:28;;;;;;;15.43;10.03;;;1.90;99.90;;;;;;4940951;28;20649;-69
2023/12/07 01:17:54;;;;;;;15.80;9.60;;;2.30;99.90;;;;;;4945981;28;20218;-69
2023/12/07 01:20:23;;;;;;;15.30;9.57;;;1.90;99.90;;;;;;4934796;28;20231;-69
2023/12/07 01:22:49;;;;;;;14.77;9.70;;;1.90;99.90;;;;;;4945605;28;20663;-69
2023/12/07 01:25:21;;;;;;;15.37;9.43;;;2.00;99.90;;;;;;4898256;28;20671;-69
2023/12/07 01:27:48;;;;;;;16.90;10.27;;;1.90;99.90;;;;;;4941864;28;21553;-69
2023/12/07 01:30:15;;;;;;;12.60;8.97;;;1.90;99.90;;;;;;4948476;28;20307;-69
2023/12/07 01:32:42;;;;;;;14.63;10.13;;;1.90;99.90;;;;;;4939533;28;20303;-69
2023/12/07 01:35:09;;;;;;;14.40;9.63;;;2.00;99.90;;;;;;4937218;28;20212;-69
2023/12/07 01:37:37;;;;;;;14.23;9.80;;;2.00;99.90;;;;;;4944285;28;20235;-69
2023/12/07 01:40:10;;;;;;;18.17;10.50;;;1.90;99.90;;;;;;4902493;28;20212;-69
2023/12/07 01:42:37;;;;;;;13.53;9.97;;;1.80;99.90;;;;;;4942923;28;20207;-69
2023/12/07 01:45:04;;;;;;;13.23;8.90;;;1.90;99.90;;;;;;4943911;28;20351;-69
2023/12/07 01:47:32;;;;;;;17.30;10.03;;;1.90;99.90;;;;;;4939680;28;20200;-69
2023/12/07 01:49:59;;;;;;;15.03;9.73;;;1.90;99.90;;;;;;4933558;28;20208;-69
2023/12/07 01:52:29;;;;;;;13.93;9.80;;;1.90;99.90;;;;;;4944720;28;20669;-69
2023/12/07 01:54:58;;;;;;;13.33;9.50;;;3.60;99.90;;;;;;4910631;28;20208;-69
2023/12/07 01:57:25;;;;;;;16.83;10.07;;;1.90;99.90;;;;;;4946520;28;20214;-69
2023/12/07 01:59:52;;;;;;;15.87;9.87;;;1.80;99.90;;;;;;4942436;28;20226;-69
2023/12/07 02:02:20;;;;;;;15.10;9.53;;;;;;;;;;4945791;28;20240;-69
2023/12/07 02:04:47;;;;;;;18.20;10.33;;;2.20;99.90;;;;;;4933149;28;20214;-69
2023/12/07 02:07:14;;;;;;;16.67;9.97;;;2.00;99.90;;;;;;4946658;28;20644;-69
2023/12/07 02:09:41;;;;;;;15.30;8.43;;;0.40;99.90;;;;;;4907329;28;20674;-69
2023/12/07 02:12:09;;;;;;;15.33;9.73;;;1.90;99.90;;;;;;4945403;28;20306;-69
2023/12/07 02:14:36;;;;;;;20.47;10.57;;;3.30;99.90;;;;;;4938053;28;20204;-69
2023/12/07 02:17:10;;;;;;;15.07;9.27;;;2.00;99.90;;;;;;4940912;28;20211;-69
2023/12/07 02:19:56;;;;;;;13.63;9.60;;;1.90;99.90;;;;;;4940943;28;20322;-69
2023/12/07 02:22:29;;;;;;;15.63;10.37;;;1.90;99.90;;;;;;4928010;28;20228;-69
2023/12/07 02:25:08;;;;;;;15.13;10.03;;;2.00;99.90;;;;;;4903409;28;20235;-69
2023/12/07 02:27:40;;;;;;;14.93;9.43;;;2.00;99.90;;;;;;4937616;28;20206;-69
2023/12/07 02:30:09;;;;;;;13.33;9.50;;;1.90;99.90;;;;;;4938485;28;20205;-69
2023/12/07 02:32:37;;;;;;;14.50;10.27;;;2.20;99.90;;;;;;4944796;28;20205;-69
2023/12/07 02:35:04;;;;;;;13.67;9.77;;;1.90;99.90;;;;;;4940885;28;20208;-69
2023/12/07 02:37:37;;;;;;;14.60;9.30;;;1.90;99.90;;;;;;4929195;28;20240;-69
2023/12/07 02:40:06;;;;;;;14.90;9.60;;;2.00;99.90;;;;;;4904703;28;20445;-69
2023/12/07 02:42:34;;;;;;;15.63;10.57;;;2.00;99.90;;;;;;4942042;28;20224;-69
2023/12/07 02:45:04;;;;;;;17.80;10.60;;;1.90;99.90;;;;;;4941964;28;20295;-69
2023/12/07 02:47:31;;;;;;;11.33;9.00;;;2.00;99.90;;;;;;4946089;28;20203;-69
2023/12/07 02:49:58;;;;;;;13.30;9.37;;;1.90;99.90;;;;;;4940607;28;20237;-69
2023/12/07 02:52:25;;;;;;;12.47;9.13;;;2.00;99.90;;;;;;4936839;28;20208;-69
2023/12/07 02:54:52;;;;;;;15.27;8.83;;;1.90;99.90;;;;;;4911294;28;20228;-69
2023/12/07 02:57:19;;;;;;;14.00;9.43;;;2.00;99.90;;;;;;4940144;28;20223;-69
2023/12/07 02:59:46;;;;;;;13.80;9.10;;;1.90;99.90;;;;;;4941398;28;20201;-69
2023/12/07 03:02:14;;;;;;;13.93;8.73;;;1.90;99.90;;;;;;4924695;28;20374;-69
2023/12/07 03:04:41;;;;;;;12.33;9.07;;;1.90;99.90;;;;;;4938649;28;20210;-69
2023/12/07 03:07:08;;;;;;;13.27;8.70;;;2.10;99.90;;;;;;4929129;28;20307;-69
2023/12/07 03:09:35;;;;;;;18.27;10.50;;;2.00;99.90;;;;;;4946113;28;20207;-69
2023/12/07 03:12:01;;;;;;;13.87;8.80;;;2.20;99.90;;;;;;4906195;28;20216;-69
2023/12/07 03:14:28;;;;;;;13.33;9.40;;;2.00;99.90;;;;;;4944314;28;20201;-69
2023/12/07 03:16:55;;;;;;;12.00;8.83;;;1.90;99.90;;;;;;4934320;28;20244;-69
2023/12/07 03:19:23;;;;;;;13.00;9.00;;;1.90;99.90;;;;;;4944037;28;20576;-69
2023/12/07 03:21:50;;;;;;;14.03;8.83;;;2.00;99.90;;;;;;4941951;28;22243;-69
2023/12/07 03:24:17;;;;;;;15.87;9.67;;;2.00;99.90;;;;;;4929438;28;20230;-69
2023/12/07 03:26:44;;;;;;;14.10;8.77;;;1.90;99.90;;;;;;4906228;28;20841;-69
2023/12/07 03:29:11;;;;;;;15.87;9.77;;;2.00;99.90;;;;;;4928507;28;21544;-69
2023/12/07 03:31:38;;;;;;;14.37;9.63;;;2.10;99.90;;;;;;4945189;28;20201;-69
2023/12/07 03:34:05;;;;;;;14.37;9.13;;;1.10;99.90;;;;;;4934056;28;20209;-69
2023/12/07 03:36:33;;;;;;;15.80;9.77;;;2.00;99.90;;;;;;4938911;28;20234;-69
2023/12/07 03:39:00;;;;;;;13.37;8.93;;;1.90;99.90;;;;;;4933708;28;20239;-69
2023/12/07 03:41:27;;;;;;;16.77;9.40;;;2.00;99.90;;;;;;4944839;28;20233;-69
2023/12/07 03:43:54;;;;;;;13.67;8.73;;;2.10;99.90;;;;;;4898303;28;20230;-69
2023/12/07 03:46:21;;;;;;;16.50;9.17;;;2.00;99.90;;;;;;4947427;28;20213;-69
2023/12/07 03:48:48;;;;;;;13.13;9.27;;;2.10;99.90;;;;;;4932613;28;20205;-69
2023/12/07 03:51:16;;;;;;;14.10;8.37;;;1.90;99.90;;;;;;4939671;28;20223;-69
2023/12/07 03:53:44;;;;;;;13.33;9.10;;;2.00;99.90;;;;;;4929899;28;20232;-69
2023/12/07 03:56:12;;;;;;;14.33;9.03;;;1.90;99.90;;;;;;4939137;28;21088;-69
2023/12/07 03:58:39;;;;;;;13.07;8.53;;;2.00;99.90;;;;;;4906282;28;20239;-69
2023/12/07 04:01:06;;;;;;;12.97;9.83;;;2.00;99.90;;;;;;4931249;28;20228;-69
2023/12/07 04:03:33;;;;;;;15.53;9.77;;;0.60;99.90;;;;;;4932985;28;20235;-69
2023/12/07 04:06:02;;;;;;;13.87;9.57;;;1.90;99.90;;;;;;4926466;28;20685;-69
2023/12/07 04:08:29;;;;;;;15.50;10.37;;;2.20;99.90;;;;;;4934464;28;20219;-69
2023/12/07 04:10:57;;;;;;;16.07;9.73;;;1.90;99.90;;;;;;4941387;28;20212;-69
2023/12/07 04:13:24;;;;;;;13.80;9.73;;;2.00;99.90;;;;;;4942865;28;20223;-69
2023/12/07 04:15:50;;;;;;;13.80;9.23;;;2.50;99.90;;;;;;4899526;28;20328;-69
2023/12/07 04:18:17;;;;;;;14.10;9.27;;;2.00;99.90;;;;;;4931327;28;20227;-69
2023/12/07 04:20:44;;;;;;;18.23;9.20;;;1.90;99.90;;;;;;4939164;28;20212;-69
2023/12/07 04:23:11;;;;;;;14.63;9.67;;;1.70;99.90;;;;;;4924429;28;20230;-69
2023/12/07 04:25:38;;;;;;;13.03;8.40;;;2.10;99.90;;;;;;4934616;28;21834;-69
2023/12/07 04:28:09;;;;;;;15.90;10.00;;;2.20;99.90;;;;;;4937350;28;20231;-69
2023/12/07 04:30:36;;;;;;;16.73;10.53;;;2.10;99.90;;;;;;4902762;28;20910;-69
2023/12/07 04:33:05;;;;;;;17.30;11.90;;;2.00;99.90;;;;;;4923232;28;20230;-69
2023/12/07 04:35:32;;;;;;;21.53;12.63;;;2.00;99.90;;;;;;4942973;28;20231;-69
2023/12/07 04:37:59;;;;;;;21.57;13.10;;;1.90;99.90;;;;;;4926960;28;20235;-69
2023/12/07 04:40:26;;;;;;;21.80;11.17;;;0.80;99.90;;;;;;4929956;28;20779;-69
2023/12/07 04:42:53;;;;;;;19.50;11.27;;;1.90;99.90;;;;;;4937603;28;20232;-69
2023/12/07 04:45:22;;;;;;;17.50;10.53;;;1.90;99.90;;;;;;4896840;28;20235;-69
2023/12/07 04:47:49;;;;;;;14.77;9.33;;;2.00;99.90;;;;;;4918357;28;20234;-68
2023/12/07 04:50:16;;;;;;;11.80;7.97;;;1.80;99.90;;;;;;4937518;28;20737;-69
2023/12/07 04:52:42;;;;;;;20.23;9.70;;;3.30;99.90;;;;;;4932590;28;20235;-69
2023/12/07 04:55:09;;;;;;;25.70;10.83;;;0.50;99.90;;;;;;4923785;28;20224;-69
2023/12/07 04:57:37;;;;;;;25.00;12.00;;;1.80;99.90;;;;;;4937852;28;20224;-69
2023/12/07 05:00:07;;;;;;;32.40;12.77;;;1.90;99.90;;;;;;4933932;28;20266;-69
2023/12/07 05:02:35;;;;;;;33.77;13.70;;;1.80;99.90;;;;;;4895518;28;20367;-70
2023/12/07 05:05:02;;;;;;;37.80;15.53;;;1.80;99.90;;;;;;4932694;28;20259;-69
2023/12/07 05:07:29;;;;;;;35.63;13.40;;;1.80;99.90;;;;;;4942515;28;20234;-69
2023/12/07 05:09:56;;;;;;;20.27;10.90;;;;;;;;;;4922026;28;20237;-69
2023/12/07 05:12:23;;;;;;;14.27;9.10;;;1.90;99.90;;;;;;4938326;28;20705;-69
2023/12/07 05:14:50;;;;;;;13.20;8.67;;;1.80;99.90;;;;;;4939223;28;20585;-69
2023/12/07 05:17:17;;;;;;;16.50;9.70;;;2.40;99.90;;;;;;4903031;28;21015;-69
2023/12/07 05:19:45;;;;;;;13.87;8.57;;;1.80;99.90;;;;;;4929536;28;20624;-69
2023/12/07 05:22:12;;;;;;;11.70;8.70;;;1.70;99.90;;;;;;4935511;28;20877;-69
2023/12/07 05:24:39;;;;;;;12.27;8.47;;;1.70;99.90;;;;;;4940963;28;20930;-69
2023/12/07 05:27:06;;;;;;;11.30;7.57;;;1.80;99.90;;;;;;4931874;28;20291;-69
2023/12/07 05:29:33;;;;;;;12.80;7.97;;;1.70;99.90;;;;;;4941399;28;20224;-68
2023/12/07 05:32:00;;;;;;;14.03;8.43;;;;;;;;;;4937979;28;20274;-69
2023/12/07 05:34:27;;;;;;;14.73;8.67;;;;;;;;;;4891600;28;20597;-69
2023/12/07 05:36:56;;;;;;;11.20;7.67;;;;;;;;;;4939322;28;20645;-69
2023/12/07 05:39:23;;;;;;;13.57;8.40;;;1.70;99.90;;;;;;4943320;28;20791;-69
2023/12/07 05:41:49;;;;;;;13.67;8.73;;;1.70;99.90;;;;;;4927349;28;20238;-68
2023/12/07 05:44:21;;;;;;;12.70;8.60;;;2.40;99.90;;;;;;4939307;28;20220;-68
2023/12/07 05:46:48;;;;;;;10.10;7.40;;;1.60;99.90;;;;;;4931379;28;20216;-69
2023/12/07 05:49:15;;;;;;;14.60;8.20;;;1.70;99.90;;;;;;4897231;28;20223;-69
2023/12/07 05:51:41;;;;;;;11.30;7.80;;;1.70;99.90;;;;;;4925773;28;20227;-69
2023/12/07 05:54:10;;;;;;;12.47;8.07;;;1.00;99.90;;;;;;4935195;28;20220;-69
2023/12/07 05:56:37;;;;;;;13.37;9.40;;;1.70;99.90;;;;;;4927407;28;20227;-69
2023/12/07 05:59:03;;;;;;;13.00;8.37;;;1.70;99.90;;;;;;4938153;28;20224;-69
2023/12/07 06:01:30;;;;;;;13.00;8.20;;;1.80;99.90;;;;;;4926641;28;21102;-69
2023/12/07 06:03:59;;;;;;;12.33;7.50;;;1.90;99.90;;;;;;4894729;28;20235;-68
2023/12/07 06:06:26;;;;;;;13.87;8.63;;;2.40;99.90;;;;;;4916130;28;20780;-68
2023/12/07 06:08:53;;;;;;;12.00;7.83;;;2.10;99.90;;;;;;4934615;28;20224;-69
2023/12/07 06:11:21;;;;;;;12.73;7.37;;;2.10;99.90;;;;;;4904891;28;20302;-69
2023/12/07 06:13:48;;;;;;;13.30;8.27;;;2.40;99.90;;;;;;4923091;28;20604;-69
2023/12/07 06:16:16;;;;;;;11.03;8.00;;;2.40;99.90;;;;;;4911375;28;21601;-68
2023/12/07 06:18:44;;;;;;;15.27;9.33;;;;;;;;;;4923538;28;20254;-67
2023/12/07 06:21:12;;;;;;;13.63;9.07;;;;;;;;;;4912218;28;20747;-69
2023/12/07 06:23:39;;;;;;;11.60;7.60;;;2.30;99.90;;;;;;4931933;28;20753;-69
2023/12/07 06:26:06;;;;;;;11.50;8.40;;;2.10;99.90;;;;;;4917229;28;20241;-69
2023/12/07 06:28:34;;;;;;;12.87;7.73;;;2.10;99.90;;;;;;4938520;28;20222;-69
2023/12/07 06:31:06;;;;;;;12.90;8.10;;;2.00;99.90;;;;;;4934542;28;20220;-68
2023/12/07 06:33:34;;;;;;;11.57;7.90;;;2.00;99.90;;;;;;4943671;28;20228;-68
2023/12/07 06:36:03;;;;;;;14.03;8.10;;;2.00;99.90;;;;;;4907024;28;20236;-69
2023/12/07 06:38:29;;;;;;;11.03;7.77;;;2.10;99.90;;;;;;4935443;28;20228;-68
2023/12/07 06:40:57;;;;;;;12.50;7.77;;;2.00;99.90;;;;;;4929919;28;20232;-68
2023/12/07 06:43:24;;;;;;;11.47;7.53;;;1.30;99.90;;;;;;4932985;28;20744;-69
2023/12/07 06:45:52;;;;;;;10.87;7.53;;;2.10;99.90;;;;;;4940444;28;20224;-69
2023/12/07 06:48:19;;;;;;;13.07;7.37;;;;;;;;;;4933267;28;20232;-69
2023/12/07 06:50:46;;;;;;;11.87;8.03;;;2.00;99.90;;;;;;4904103;28;21157;-69
2023/12/07 06:53:13;;;;;;;11.17;8.17;;;1.90;99.90;;;;;;4931443;28;20792;-69
2023/12/07 06:55:42;;;;;;;24.47;12.57;;;1.90;99.90;;;;;;4932913;28;20212;-69
2023/12/07 06:58:10;;;;;;;21.10;13.33;;;1.80;99.90;;;;;;4929175;28;20245;-69
2023/12/07 07:00:37;;;;;;;35.07;15.93;;;1.90;99.90;;;;;;4928478;28;20220;-69
2023/12/07 07:03:06;;;;;;;25.00;13.00;;;1.90;99.90;;;;;;4928927;28;20235;-68
2023/12/07 07:05:32;;;;;;;16.07;9.43;;;1.80;99.90;;;;;;4899994;28;20232;-69
2023/12/07 07:07:59;;;;;;;12.97;7.80;;;1.80;99.90;;;;;;4927918;28;20231;-69
2023/12/07 07:10:26;;;;;;;12.90;8.27;;;1.70;99.90;;;;;;4928202;28;20223;-69
2023/12/07 07:12:53;;;;;;;11.63;7.93;;;1.90;99.90;;;;;;4909448;28;20224;-68
2023/12/07 07:15:20;;;;;;;12.37;8.37;;;1.80;99.90;;;;;;4929783;28;20609;-69
2023/12/07 07:17:47;;;;;;;16.00;7.93;;;1.80;99.90;;;;;;4926093;28;21148;-68
2023/12/07 07:20:15;;;;;;;12.60;8.00;;;1.70;99.90;;;;;;4904787;28;20217;-68
2023/12/07 07:22:42;;;;;;;15.23;8.33;;;2.10;99.90;;;;;;4932574;28;20236;-69
2023/12/07 07:25:10;;;;;;;14.60;8.77;;;1.80;99.90;;;;;;4935571;28;20256;-69
2023/12/07 07:27:37;;;;;;;12.23;8.50;;;;;;;;;;4924558;28;20246;-68
2023/12/07 07:30:05;;;;;;;10.73;7.93;;;1.70;99.90;;;;;;4931315;28;20239;-68
2023/12/07 07:32:32;;;;;;;14.00;8.10;;;3.00;99.90;;;;;;4940001;28;20225;-68
2023/12/07 07:35:00;;;;;;;12.97;8.40;;;4.00;99.90;;;;;;4909555;28;20233;-69
2023/12/07 07:37:28;;;;;;;11.77;7.67;;;1.80;99.90;;;;;;4934717;28;20309;-68
2023/12/07 07:39:55;;;;;;;12.90;7.90;;;1.80;99.90;;;;;;4936203;28;20304;-68
2023/12/07 07:42:22;;;;;;;14.87;8.83;;;1.80;99.90;;;;;;4928454;28;20224;-68
2023/12/07 07:44:48;;;;;;;11.47;8.50;;;1.80;99.90;;;;;;4928299;28;20207;-68
2023/12/07 07:47:16;;;;;;;12.50;7.97;;;;;;;;;;4940096;28;20224;-68
2023/12/07 07:49:42;;;;;;;12.30;8.03;;;1.90;99.90;;;;;;4931718;28;20228;-68
2023/12/07 07:52:09;;;;;;;13.10;8.53;;;2.20;99.90;;;;;;4896369;28;20853;-68
2023/12/07 07:54:37;;;;;;;13.13;8.33;;;1.90;99.90;;;;;;4931181;28;21107;-68
2023/12/07 07:57:05;;;;;;;15.97;8.60;;;2.00;99.90;;;;;;4919479;28;20630;-68
2023/12/07 07:59:32;;;;;;;13.40;8.43;;;2.00;99.90;;;;;;4927687;28;20222;-68
2023/12/07 08:01:59;;;;;;;13.83;8.57;;;1.90;99.90;;;;;;4939120;28;20306;-68
2023/12/07 08:04:26;;;;;;;13.53;8.80;;;2.00;99.90;;;;;;4926404;28;20242;-68
2023/12/07 08:06:52;;;;;;;16.67;9.53;;;2.00;99.90;;;;;;4907642;28;20230;-67
2023/12/07 08:09:19;;;;;;;15.90;8.67;;;1.80;99.90;;;;;;4928395;28;20235;-69
2023/12/07 08:11:50;;;;;;;10.27;7.50;;;1.90;99.90;;;;;;4939078;28;20226;-68
2023/12/07 08:14:16;;;;;;;11.43;7.50;;;2.10;99.90;;;;;;4927110;28;20266;-68
2023/12/07 08:16:46;;;;;;;15.37;8.53;;;2.00;99.90;;;;;;4935087;28;20225;-68
2023/12/07 08:19:13;;;;;;;13.13;8.33;;;2.00;99.90;;;;;;4936867;28;20224;-68
2023/12/07 08:21:40;;;;;;;15.73;8.03;;;1.80;99.90;;;;;;4932927;28;20896;-68
2023/12/07 08:24:08;;;;;;;13.13;8.57;;;2.00;99.90;;;;;;4900813;28;20240;-68
2023/12/07 08:26:34;;;;;;;13.47;7.80;;;2.10;99.90;;;;;;4929399;28;20238;-68
2023/12/07 08:29:03;;;;;;;13.53;7.93;;;2.10;99.90;;;;;;4934308;28;20228;-69
2023/12/07 08:31:30;;;;;;;17.30;9.83;;;2.10;99.90;;;;;;4942013;28;20229;-68
2023/12/07 08:33:57;;;;;;;17.17;9.30;;;3.00;99.90;;;;;;4942462;28;21102;-68
2023/12/07 08:36:23;;;;;;;15.77;8.47;;;2.00;99.90;;;;;;4931596;28;20239;-68
2023/12/07 08:38:50;;;;;;;13.93;7.90;;;1.90;99.90;;;;;;4908171;28;20239;-68
2023/12/07 08:41:17;;;;;;;12.30;8.40;;;2.00;99.90;;;;;;4932320;28;20246;-68
2023/12/07 08:43:44;;;;;;;12.20;8.40;;;2.00;99.90;;;;;;4942023;28;20224;-68
2023/12/07 08:46:12;;;;;;;13.43;8.40;;;2.00;99.90;;;;;;4936717;28;20210;-68
2023/12/07 08:48:39;;;;;;;15.00;8.20;;;2.00;99.90;;;;;;4927162;28;20211;-68
2023/12/07 08:51:08;;;;;;;12.97;7.90;;;2.20;99.90;;;;;;4929994;28;20209;-68
2023/12/07 08:53:35;;;;;;;13.63;8.60;;;2.10;99.90;;;;;;4892973;28;21065;-68
2023/12/07 08:56:01;;;;;;;20.87;8.87;;;2.10;99.90;;;;;;4932282;28;20291;-68
2023/12/07 08:58:28;;;;;;;12.37;8.43;;;;;;;;;;4934698;28;20602;-68
2023/12/07 09:00:55;;;;;;;13.30;8.37;;;2.00;99.90;;;;;;4920107;28;21234;-68
2023/12/07 09:03:27;;;;;;;15.73;9.30;;;2.10;99.90;;;;;;4940432;28;20244;-68
2023/12/07 09:05:54;;;;;;;14.43;8.87;;;2.20;99.90;;;;;;4926570;28;20575;-68
2023/12/07 09:08:20;;;;;;;18.83;9.40;;;2.10;99.90;;;;;;4902485;28;20227;-68
2023/12/07 09:10:49;;;;;;;13.57;8.60;;;2.80;99.90;;;;;;4941123;28;20215;-68
2023/12/07 09:13:16;;;;;;;14.53;8.70;;;2.80;99.90;;;;;;4938625;28;20780;-68
2023/12/07 09:15:43;;;;;;;14.67;9.77;;;2.60;99.90;;;;;;4934092;28;20224;-68
2023/12/07 09:18:10;;;;;;;11.37;7.47;;;2.50;99.90;;;;;;4943790;28;20224;-68
2023/12/07 09:20:45;;;;;;;18.37;9.40;;;2.50;99.90;;;;;;4939476;28;20220;-68
2023/12/07 09:23:12;;;;;;;12.87;8.27;;;2.40;99.90;;;;;;4945617;28;20570;-68
2023/12/07 09:25:40;;;;;;;16.57;8.60;;;2.30;99.90;;;;;;4909126;28;20738;-68
2023/12/07 09:28:08;;;;;;;11.40;7.83;;;2.30;99.90;;;;;;4934759;28;20527;-68
2023/12/07 09:30:35;;;;;;;14.00;9.10;;;;;;;;;;4937817;28;20243;-68
2023/12/07 09:33:03;;;;;;;12.37;8.33;;;0.80;99.90;;;;;;4940147;28;20232;-68
2023/12/07 09:35:31;;;;;;;13.20;8.77;;;;;;;;;;4944347;28;20223;-68
2023/12/07 09:37:59;;;;;;;11.33;8.30;;;2.30;99.90;;;;;;4933728;28;20477;-68
2023/12/07 09:40:27;;;;;;;14.30;8.83;;;2.30;99.90;;;;;;4908107;28;20236;-68
2023/12/07 09:42:54;;;;;;;14.83;8.93;;;2.30;99.90;;;;;;4934897;28;20234;-68
2023/12/07 09:45:21;;;;;;;13.27;8.57;;;2.20;99.90;;;;;;4944657;28;20216;-68
2023/12/07 09:47:49;;;;;;;14.20;8.10;;;2.30;99.90;;;;;;4931393;28;20773;-68
2023/12/07 09:50:18;;;;;;;12.87;8.87;;;2.20;99.90;;;;;;4941514;28;20817;-68
2023/12/07 09:52:45;;;;;;;13.93;8.30;;;2.20;99.90;;;;;;4931036;28;20639;-68
2023/12/07 09:55:13;;;;;;;18.33;10.87;;;2.30;99.90;;;;;;4943401;28;20231;-68
2023/12/07 09:57:41;;;;;;;13.57;9.20;;;2.30;99.90;;;;;;4893527;28;20899;-68
2023/12/07 10:00:10;;;;;;;12.30;8.80;;;;;;;;;;4943141;28;20735;-68
2023/12/07 10:02:38;;;;;;;13.10;8.07;;;2.20;99.90;;;;;;4933370;28;20234;-68
2023/12/07 10:05:06;;;;;;;10.67;7.57;;;2.40;99.90;;;;;;4930983;28;20235;-68
2023/12/07 10:07:36;;;;;;;13.83;8.60;;;2.20;99.90;;;;;;4932183;28;20228;-68
2023/12/07 10:10:03;;;;;;;13.80;9.03;;;2.20;99.90;;;;;;4943820;28;20339;-68
2023/12/07 10:12:34;;;;;;;19.27;10.10;;;2.30;99.90;;;;;;4909603;28;20239;-68
2023/12/07 10:15:03;;;;;;;11.53;8.57;;;1.70;99.90;;;;;;4943680;28;20281;-68
2023/12/07 10:17:47;;;;;;;14.03;8.73;;;2.30;99.90;;;;;;4941122;28;20228;-68
2023/12/07 10:20:15;;;;;;;12.50;8.80;;;2.20;99.90;;;;;;4933030;28;20228;-68
2023/12/07 10:22:42;;;;;;;12.20;8.30;;;2.40;99.90;;;;;;4934167;28;21935;-68
2023/12/07 10:25:11;;;;;;;11.73;7.40;;;2.30;99.90;;;;;;4948518;28;20244;-68
2023/12/07 10:27:42;;;;;;;12.47;8.03;;;2.20;99.90;;;;;;4915670;28;20756;-68
2023/12/07 10:30:11;;;;;;;11.07;7.70;;;2.30;99.90;;;;;;4938989;28;20239;-68
2023/12/07 10:32:39;;;;;;;12.37;8.50;;;2.20;99.90;;;;;;4948111;28;20573;-68
2023/12/07 10:35:09;;;;;;;14.67;8.17;;;2.30;99.90;;;;;;4941073;28;20212;-68
2023/12/07 10:37:36;;;;;;;11.87;7.90;;;2.30;99.90;;;;;;4942376;28;20237;-68
2023/12/07 10:40:05;;;;;;;11.93;7.20;;;2.40;99.90;;;;;;4934104;28;20674;-68
2023/12/07 10:42:35;;;;;;;13.97;7.97;;;2.30;99.90;;;;;;4925275;28;20269;-68
2023/12/07 10:45:05;;;;;;;16.43;8.23;;;2.40;99.90;;;;;;4933294;28;21318;-68
2023/12/07 10:47:36;;;;;;;12.03;6.90;;;3.00;99.90;;;;;;4944470;28;20239;-68
2023/12/07 10:50:06;;;;;;;12.47;8.17;;;2.30;99.90;;;;;;4937716;28;20208;-68
2023/12/07 10:52:35;;;;;;;13.47;8.73;;;2.50;99.90;;;;;;4942390;28;20201;-68
2023/12/07 10:55:04;;;;;;;14.73;8.40;;;2.50;99.90;;;;;;4939078;28;20219;-68
2023/12/07 10:57:35;;;;;;;11.17;7.90;;;2.00;99.90;;;;;;4946617;28;21064;-68
2023/12/07 11:00:04;;;;;;;13.63;9.17;;;2.50;99.90;;;;;;4912906;28;20287;-68
2023/12/07 11:02:34;;;;;;;13.03;8.30;;;3.10;99.90;;;;;;4943603;28;20219;-68
2023/12/07 11:05:03;;;;;;;13.20;9.13;;;2.40;99.90;;;;;;4936342;28;20232;-68
2023/12/07 11:07:39;;;;;;;11.83;8.13;;;2.40;99.90;;;;;;4942173;28;20204;-68
2023/12/07 11:10:13;;;;;;;12.93;8.60;;;2.30;99.90;;;;;;4938518;28;20583;-68
2023/12/07 11:12:47;;;;;;;10.93;8.20;;;2.30;99.90;;;;;;4947263;28;20202;-68
2023/12/07 11:15:17;;;;;;;11.93;7.07;;;2.50;99.90;;;;;;4911174;28;20211;-68
2023/12/07 11:17:55;;;;;;;15.43;7.67;;;2.50;99.90;;;;;;4927889;28;20582;-68
2023/12/07 11:20:32;;;;;;;12.80;7.07;;;2.50;99.90;;;;;;4934337;28;20215;-68
2023/12/07 11:23:00;;;;;;;10.20;6.90;;;2.40;99.90;;;;;;4945602;28;20196;-68
2023/12/07 11:25:27;;;;;;;13.50;7.60;;;2.40;99.90;;;;;;4932179;28;20955;-68
2023/12/07 11:28:01;;;;;;;11.77;7.97;;;2.40;99.90;;;;;;4941369;28;20318;-68
2023/12/07 11:30:35;;;;;;;9.97;7.17;;;2.30;99.90;;;;;;4901028;28;20334;-68
2023/12/07 11:33:04;;;;;;;12.73;7.63;;;2.50;99.90;;;;;;4919367;28;20490;-68
2023/12/07 11:35:31;;;;;;;12.13;7.43;;;;;;;;;;4920857;28;20220;-68
2023/12/07 11:38:06;;;;;;;11.50;7.90;;;2.50;99.90;;;;;;4920511;28;20240;-68
2023/12/07 11:40:36;;;;;;;14.37;7.53;;;3.00;99.90;;;;;;4915801;28;20598;-68
2023/12/07 11:43:05;;;;;;;11.87;6.47;;;2.60;99.90;;;;;;4937526;28;20597;-68
2023/12/07 11:45:48;;;;;;;12.53;7.27;;;2.50;99.90;;;;;;4917062;28;20242;-69
2023/12/07 11:48:18;;;;;;;12.77;7.37;;;;;;;;;;4926236;28;20606;-69
2023/12/07 11:51:01;;;;;;;11.87;7.17;;;2.60;99.90;;;;;;4903906;28;20231;-69
2023/12/07 11:53:30;;;;;;;15.37;7.40;;;2.50;99.90;;;;;;4934617;28;20753;-69
2023/12/07 11:55:58;;;;;;;11.90;7.60;;;2.60;99.90;;;;;;4918259;28;20279;-69
2023/12/07 11:58:25;;;;;;;13.53;7.97;;;2.70;99.90;;;;;;4937598;28;20744;-69
2023/12/07 12:00:56;;;;;;;9.33;6.73;;;2.70;99.90;;;;;;4929275;28;20220;-68
2023/12/07 12:03:23;;;;;;;11.03;7.40;;;2.70;99.90;;;;;;4899380;28;20224;-68
2023/12/07 12:05:50;;;;;;;12.97;7.67;;;2.80;99.90;;;;;;4910104;28;20236;-69
2023/12/07 12:08:17;;;;;;;12.33;8.47;;;2.70;99.90;;;;;;4911279;28;20224;-69
2023/12/07 12:10:44;;;;;;;11.47;7.70;;;2.70;99.90;;;;;;4907010;28;20237;-68
2023/12/07 12:13:11;;;;;;;12.73;7.57;;;2.70;99.90;;;;;;4941351;28;20331;-68
2023/12/07 12:15:39;;;;;;;12.30;7.80;;;2.70;99.90;;;;;;4919607;28;20792;-68
2023/12/07 12:18:08;;;;;;;13.53;7.80;;;2.80;99.90;;;;;;4899181;28;20239;-68
2023/12/07 12:20:36;;;;;;;12.27;7.30;;;2.80;99.90;;;;;;4923522;28;20243;-68
2023/12/07 12:23:03;;;;;;;12.83;7.53;;;2.80;99.90;;;;;;4904478;28;20229;-68
2023/12/07 12:25:32;;;;;;;11.70;8.17;;;2.70;99.90;;;;;;4918928;28;20329;-68
2023/12/07 12:28:06;;;;;;;10.63;7.77;;;3.10;99.90;;;;;;4917275;28;20367;-68
2023/12/07 12:30:34;;;;;;;12.30;7.77;;;2.70;99.90;;;;;;4936374;28;20223;-68
2023/12/07 12:33:01;;;;;;;13.63;8.17;;;2.70;99.90;;;;;;4897597;28;20732;-68
2023/12/07 12:35:30;;;;;;;10.83;7.47;;;2.70;99.90;;;;;;4945388;28;20215;-68
2023/12/07 12:37:57;;;;;;;11.80;8.03;;;2.80;99.90;;;;;;4934591;28;20359;-68
2023/12/07 12:40:24;;;;;;;14.77;8.10;;;2.70;99.90;;;;;;4931907;28;20250;-68
2023/12/07 12:42:53;;;;;;;14.03;7.77;;;2.70;99.90;;;;;;4926756;28;20224;-68
2023/12/07 12:45:20;;;;;;;12.03;7.93;;;2.80;99.90;;;;;;4943454;28;20241;-68
2023/12/07 12:47:49;;;;;;;13.23;9.00;;;2.60;99.90;;;;;;4945989;28;20982;-68
2023/12/07 12:50:36;;;;;;;12.80;8.43;;;2.70;99.90;;;;;;4906662;28;20235;-68
2023/12/07 12:53:03;;;;;;;13.00;8.07;;;2.70;99.90;;;;;;4934941;28;20232;-68
2023/12/07 12:55:32;;;;;;;13.20;8.27;;;2.80;99.90;;;;;;4935231;28;20224;-68